Hopkinton, New Hampshire
Current Conditions -  °F | °C
As of 1:51 AM on Friday 19 Dec 2014 (Local Time) from KCON Reporting Station
Overcast Overcast  
Wind Chill: 22°   Ceiling: 3000
Heat Index: 31°   Visibility: 10mi
Dew Point: 23°   Wind: 12mph
Humidity: 72%   Direction: 300°WNW
Pressure: 29.86"   Gusts: NA
Location:  43.2205°N, 71.6996°W
Report Text: KCON 190651Z AUTO 30010KT 10SM BKN030 OVC035 M01/M05 A2986 RMK AO2 SLP116 T10061050
Loading
Personal Weather Stations






























Interactive Weather Map New forecast layout! Learn more

10-Day Weather Forecast

Advertisements
Track Severe Weather on mobile